Time;durP1;ratioP1;P1;durP2;ratioP2;P2;SDS_P1;SDS_P2;PMS_P1;PMS_P2;Temp;Humidity;BMP_temperature;BMP_pressure;BME280_temperature;BME280_humidity;BME280_pressure;Samples;Min_cycle;Max_cycle;Signal;HPM_P1;HPM_P2
2021/01/23 00:01:58;;;;;;;11.23;7.17;;;2.70;99.90;;;;;;5094299;28;20533;-76
2021/01/23 00:04:24;;;;;;;10.60;6.53;;;2.70;99.90;;;;;;5093599;28;20553;-78
2021/01/23 00:06:51;;;;;;;11.37;7.53;;;2.70;99.90;;;;;;5094068;28;20500;-78
2021/01/23 00:09:17;;;;;;;8.23;6.30;;;2.60;99.90;;;;;;5093117;28;21031;-77
2021/01/23 00:11:44;;;;;;;11.93;6.57;;;2.60;99.90;;;;;;5093582;28;20448;-77
2021/01/23 00:14:10;;;;;;;8.77;6.73;;;2.60;99.90;;;;;;5090031;28;20528;-77
2021/01/23 00:16:38;;;;;;;16.30;9.20;;;2.60;99.90;;;;;;5094273;28;20468;-77
2021/01/23 00:19:04;;;;;;;14.30;7.37;;;2.50;99.90;;;;;;5077270;28;20442;-77
2021/01/23 00:21:30;;;;;;;10.77;6.90;;;2.50;99.90;;;;;;5097020;28;20915;-77
2021/01/23 00:23:57;;;;;;;13.50;7.73;;;2.50;99.90;;;;;;5090698;28;20462;-79
2021/01/23 00:26:23;;;;;;;9.00;6.17;;;2.50;99.90;;;;;;5076149;28;20928;-77
2021/01/23 00:28:49;;;;;;;10.83;7.10;;;2.50;99.90;;;;;;5097113;28;20559;-77
2021/01/23 00:31:16;;;;;;;11.50;7.83;;;2.50;99.90;;;;;;5096759;28;20533;-83
2021/01/23 00:33:46;;;;;;;13.20;7.50;;;2.50;99.90;;;;;;5097286;28;20545;-77
2021/01/23 00:36:13;;;;;;;9.43;7.33;;;2.40;99.90;;;;;;5097311;28;20477;-85
2021/01/23 00:38:39;;;;;;;14.70;7.30;;;2.40;99.90;;;;;;5096807;28;20449;-77
2021/01/23 00:41:05;;;;;;;10.90;7.70;;;2.40;99.90;;;;;;5096560;28;20443;-77
2021/01/23 00:43:32;;;;;;;8.97;7.50;;;2.40;99.90;;;;;;5096098;28;20533;-76
2021/01/23 00:46:01;;;;;;;11.83;7.50;;;2.40;99.90;;;;;;5096649;28;20579;-77
2021/01/23 00:48:27;;;;;;;12.17;7.60;;;2.40;99.90;;;;;;5084122;28;20458;-77
2021/01/23 00:50:55;;;;;;;10.17;7.50;;;2.40;99.90;;;;;;5096636;28;20502;-81
2021/01/23 00:53:21;;;;;;;11.20;7.70;;;2.40;99.90;;;;;;5095557;28;20606;-77
2021/01/23 00:55:48;;;;;;;10.80;7.17;;;2.50;99.90;;;;;;5096626;28;21013;-77
2021/01/23 00:58:14;;;;;;;9.83;7.43;;;2.50;99.90;;;;;;5096050;28;20915;-86
2021/01/23 01:00:49;;;;;;;11.37;7.47;;;2.50;99.90;;;;;;5093422;28;20483;-77
2021/01/23 01:03:16;;;;;;;17.80;7.57;;;2.50;99.90;;;;;;5095635;28;20934;-84
2021/01/23 01:05:42;;;;;;;10.27;7.03;;;2.50;99.90;;;;;;5096055;28;20441;-77
2021/01/23 01:08:12;;;;;;;10.83;7.80;;;2.60;99.90;;;;;;5096005;28;20451;-84
2021/01/23 01:10:42;;;;;;;14.37;8.17;;;2.60;99.90;;;;;;5093009;28;20458;-77
2021/01/23 01:13:08;;;;;;;14.60;8.30;;;2.60;99.90;;;;;;5094926;28;20556;-77
2021/01/23 01:15:34;;;;;;;11.50;7.00;;;2.60;99.90;;;;;;5086620;28;20621;-77
2021/01/23 01:18:07;;;;;;;8.27;6.33;;;2.60;99.90;;;;;;5092428;28;20533;-77
2021/01/23 01:20:33;;;;;;;10.27;6.93;;;2.60;99.90;;;;;;5093502;28;21006;-76
2021/01/23 01:23:00;;;;;;;12.03;6.40;;;2.70;99.90;;;;;;5095937;28;20454;-77
2021/01/23 01:25:27;;;;;;;11.63;7.50;;;2.70;99.90;;;;;;5094933;28;20450;-77
2021/01/23 01:28:00;;;;;;;12.93;7.10;;;2.60;99.90;;;;;;5095445;28;20549;-77
2021/01/23 01:30:26;;;;;;;9.27;5.83;;;2.60;99.90;;;;;;5090225;28;20788;-77
2021/01/23 01:32:52;;;;;;;10.17;6.60;;;2.70;99.90;;;;;;5075691;28;20879;-77
2021/01/23 01:35:19;;;;;;;7.73;6.03;;;2.70;99.90;;;;;;5086475;28;20455;-84
2021/01/23 01:37:45;;;;;;;9.53;6.10;;;2.70;99.90;;;;;;5081678;28;20441;-77
2021/01/23 01:40:15;;;;;;;9.23;6.07;;;2.70;99.90;;;;;;5095373;28;20458;-77
2021/01/23 01:42:43;;;;;;;9.90;5.77;;;2.70;99.90;;;;;;5095113;28;20450;-77
2021/01/23 01:45:10;;;;;;;10.97;6.70;;;2.70;99.90;;;;;;5095990;28;20556;-77
2021/01/23 01:47:38;;;;;;;9.90;6.47;;;2.70;99.90;;;;;;5086776;28;20605;-77
2021/01/23 01:50:05;;;;;;;11.03;6.60;;;2.60;99.90;;;;;;5092011;28;20510;-77
2021/01/23 01:52:31;;;;;;;9.03;7.37;;;2.60;99.90;;;;;;5094575;28;20442;-76
2021/01/23 01:54:59;;;;;;;10.80;5.90;;;2.60;99.90;;;;;;5094820;28;20918;-77
2021/01/23 01:57:25;;;;;;;10.13;7.10;;;2.60;99.90;;;;;;5095322;28;20468;-77
2021/01/23 01:59:52;;;;;;;9.30;7.00;;;2.60;99.90;;;;;;5095303;28;20454;-77
2021/01/23 02:02:43;;;;;;;11.83;7.10;;;2.50;99.90;;;;;;5094613;28;20453;-78
2021/01/23 02:05:15;;;;;;;7.77;6.47;;;2.60;99.90;;;;;;5095852;28;20445;-76
2021/01/23 02:07:47;;;;;;;8.70;6.40;;;2.60;99.90;;;;;;5094504;28;20443;-78
2021/01/23 02:10:27;;;;;;;10.07;6.40;;;2.60;99.90;;;;;;5095116;28;20434;-77
2021/01/23 02:13:13;;;;;;;11.67;6.20;;;2.60;99.90;;;;;;5095593;28;20510;-77
2021/01/23 02:15:47;;;;;;;10.63;6.70;;;2.60;99.90;;;;;;5094204;28;21192;-78
2021/01/23 02:18:15;;;;;;;13.20;7.30;;;2.60;99.90;;;;;;5095410;28;20927;-77
2021/01/23 02:21:28;;;;;;;12.20;7.00;;;2.70;99.90;;;;;;5094462;28;20451;-77
2021/01/23 02:23:57;;;;;;;14.53;7.40;;;2.70;99.90;;;;;;5052735;28;20448;-77
2021/01/23 02:26:34;;;;;;;11.03;7.13;;;2.70;99.90;;;;;;5090001;28;20603;-77
2021/01/23 02:29:07;;;;;;;14.17;7.53;;;2.80;99.90;;;;;;5095328;28;20445;-77
2021/01/23 02:31:39;;;;;;;12.70;6.80;;;2.80;99.90;;;;;;5094436;28;20430;-77
2021/01/23 02:34:09;;;;;;;16.10;8.27;;;2.80;99.90;;;;;;5095043;28;20474;-77
2021/01/23 02:36:37;;;;;;;12.37;7.10;;;2.80;99.90;;;;;;5093575;28;20438;-77
2021/01/23 02:39:04;;;;;;;9.47;6.70;;;2.80;99.90;;;;;;5094961;28;20448;-77
2021/01/23 02:41:31;;;;;;;9.57;6.77;;;2.70;99.90;;;;;;5093824;28;20439;-77
2021/01/23 02:43:57;;;;;;;10.13;6.37;;;2.70;99.90;;;;;;5094459;28;20440;-77
2021/01/23 02:46:23;;;;;;;10.13;7.37;;;2.80;99.90;;;;;;5093821;28;20642;-77
2021/01/23 02:48:51;;;;;;;11.67;7.13;;;2.80;99.90;;;;;;5094432;28;20457;-77
2021/01/23 02:51:27;;;;;;;12.20;6.70;;;2.80;99.90;;;;;;5094340;28;20450;-77
2021/01/23 02:54:01;;;;;;;10.10;6.43;;;2.90;99.90;;;;;;5094487;28;20529;-77
2021/01/23 02:56:29;;;;;;;9.20;6.00;;;2.90;99.90;;;;;;5093970;28;20438;-77
2021/01/23 02:59:01;;;;;;;9.67;6.07;;;2.90;99.90;;;;;;5094219;28;20834;-77
2021/01/23 03:01:30;;;;;;;13.13;7.57;;;2.80;99.90;;;;;;5093717;28;20448;-77
2021/01/23 03:03:59;;;;;;;9.70;5.80;;;2.80;99.90;;;;;;5093847;28;20446;-77
2021/01/23 03:06:25;;;;;;;9.90;5.80;;;2.80;99.90;;;;;;5093394;28;20472;-77
2021/01/23 03:08:52;;;;;;;9.47;5.70;;;2.80;99.90;;;;;;5093553;28;20804;-77
2021/01/23 03:11:18;;;;;;;10.50;5.73;;;2.70;99.90;;;;;;5094296;28;20515;-77
2021/01/23 03:13:44;;;;;;;7.90;5.60;;;2.70;99.90;;;;;;5093249;28;20496;-77
2021/01/23 03:16:11;;;;;;;10.90;6.50;;;2.70;99.90;;;;;;5092926;28;20829;-77
2021/01/23 03:18:37;;;;;;;14.00;5.40;;;2.70;99.90;;;;;;5093222;28;20809;-77
2021/01/23 03:21:05;;;;;;;12.23;6.63;;;2.60;99.90;;;;;;5093464;28;20948;-77
2021/01/23 03:23:31;;;;;;;7.70;5.57;;;2.50;99.90;;;;;;5092989;28;20455;-77
2021/01/23 03:25:57;;;;;;;10.83;6.20;;;2.50;99.90;;;;;;5093313;28;20439;-77
2021/01/23 03:28:24;;;;;;;8.87;5.10;;;2.50;99.90;;;;;;5093210;28;20417;-85
2021/01/23 03:30:50;;;;;;;10.93;6.13;;;2.50;99.90;;;;;;5093284;28;20499;-77
2021/01/23 03:33:16;;;;;;;13.63;6.93;;;2.50;99.90;;;;;;5093588;28;20489;-77
2021/01/23 03:35:43;;;;;;;11.80;6.40;;;2.50;99.90;;;;;;5092961;28;20724;-77
2021/01/23 03:38:11;;;;;;;10.73;6.97;;;2.50;99.90;;;;;;5093377;28;20455;-77
2021/01/23 03:40:37;;;;;;;14.70;7.10;;;2.50;99.90;;;;;;5092712;28;20870;-77
2021/01/23 03:43:03;;;;;;;10.40;6.67;;;2.50;99.90;;;;;;5093444;28;20454;-78
2021/01/23 03:45:30;;;;;;;10.70;6.47;;;2.30;99.90;;;;;;5092726;28;20465;-77
2021/01/23 03:47:56;;;;;;;9.57;6.70;;;2.30;99.90;;;;;;5092789;28;20449;-77
2021/01/23 03:50:22;;;;;;;11.07;6.20;;;2.30;99.90;;;;;;5093194;28;20448;-85
2021/01/23 03:52:49;;;;;;;11.97;6.50;;;2.30;99.90;;;;;;5092668;28;20478;-77
2021/01/23 03:55:16;;;;;;;7.87;6.70;;;2.20;99.90;;;;;;5093036;28;20452;-77
2021/01/23 03:57:42;;;;;;;11.33;7.33;;;2.20;99.90;;;;;;5092919;28;20417;-77
2021/01/23 04:00:10;;;;;;;11.20;7.23;;;2.10;99.90;;;;;;5093523;28;20540;-77
2021/01/23 04:02:36;;;;;;;9.70;5.80;;;2.10;99.90;;;;;;5092712;28;20449;-77
2021/01/23 04:05:03;;;;;;;10.55;6.15;;;2.10;99.90;;;;;;5093222;28;20476;-77
2021/01/23 04:07:30;;;;;;;12.07;7.20;;;2.10;99.90;;;;;;5092221;28;20232;-78
2021/01/23 04:09:56;;;;;;;11.25;7.75;;;2.10;99.90;;;;;;5081893;28;20468;-76
2021/01/23 04:12:23;;;;;;;10.67;7.67;;;2.00;99.90;;;;;;5082374;28;20211;-85
2021/01/23 04:14:49;;;;;;;10.07;7.67;;;2.00;99.90;;;;;;5086802;28;20590;-77
2021/01/23 04:17:16;;;;;;;11.40;7.73;;;2.10;99.90;;;;;;5092618;28;20450;-76
2021/01/23 04:19:42;;;;;;;13.33;7.80;;;2.10;99.90;;;;;;5092693;28;20519;-77
2021/01/23 04:22:09;;;;;;;9.97;7.63;;;2.10;99.90;;;;;;5085688;28;20463;-77
2021/01/23 04:24:35;;;;;;;13.70;7.97;;;2.10;99.90;;;;;;5092838;28;20458;-77
2021/01/23 04:27:01;;;;;;;11.37;7.80;;;2.10;99.90;;;;;;5093102;28;20451;-76
2021/01/23 04:29:29;;;;;;;19.87;9.17;;;2.00;99.90;;;;;;5093346;28;20504;-77
2021/01/23 04:31:55;;;;;;;10.77;7.10;;;1.90;99.90;;;;;;5093734;28;20499;-77
2021/01/23 04:34:21;;;;;;;12.83;8.50;;;2.00;99.90;;;;;;5074059;28;21024;-77
2021/01/23 04:36:48;;;;;;;13.47;8.07;;;1.90;99.90;;;;;;5072748;28;20487;-77
2021/01/23 04:39:14;;;;;;;9.97;7.07;;;1.80;99.90;;;;;;5092859;28;20450;-77
2021/01/23 04:41:40;;;;;;;16.77;8.63;;;1.80;99.90;;;;;;5092353;28;20458;-77
2021/01/23 04:44:07;;;;;;;13.20;8.10;;;1.90;99.90;;;;;;5093585;28;20458;-77
2021/01/23 04:46:34;;;;;;;11.27;8.37;;;1.90;99.90;;;;;;5092503;28;20450;-77
2021/01/23 04:49:02;;;;;;;15.57;8.60;;;1.90;99.90;;;;;;5093436;28;20446;-77
2021/01/23 04:51:29;;;;;;;14.00;7.67;;;1.80;99.90;;;;;;5093024;28;20451;-77
2021/01/23 04:53:55;;;;;;;16.70;8.50;;;1.80;99.90;;;;;;5092925;28;20503;-77
2021/01/23 04:56:22;;;;;;;13.60;7.73;;;1.80;99.90;;;;;;5092910;28;21002;-77
2021/01/23 04:58:48;;;;;;;14.97;9.83;;;1.80;99.90;;;;;;5092748;28;20522;-76
2021/01/23 05:01:15;;;;;;;15.30;8.85;;;1.80;99.90;;;;;;5096465;28;20788;-77
2021/01/23 05:03:55;;;;;;;10.10;8.40;;;1.80;99.90;;;;;;5096074;28;20218;-77
2021/01/23 05:06:22;;;;;;;13.30;8.70;;;1.80;99.90;;;;;;5096331;28;20564;-77
2021/01/23 05:08:48;;;;;;;13.55;7.70;;;1.80;99.90;;;;;;5095617;28;20204;-77
2021/01/23 05:11:14;;;;;;;14.23;9.80;;;1.80;99.90;;;;;;5096279;28;20199;-77
2021/01/23 05:13:44;;;;;;;15.98;8.80;;;1.70;99.90;;;;;;5095765;28;20470;-77
2021/01/23 05:16:25;;;;;;;15.63;8.15;;;1.70;99.90;;;;;;5095555;28;20200;-78
2021/01/23 05:19:01;;;;;;;12.50;9.50;;;1.70;99.90;;;;;;5095689;28;20245;-78
2021/01/23 05:21:28;;;;;;;11.17;8.00;;;1.80;99.90;;;;;;5096472;28;20279;-84
2021/01/23 05:24:09;;;;;;;11.17;7.40;;;1.90;99.90;;;;;;5096073;28;20465;-78
2021/01/23 05:26:36;;;;;;;11.27;8.90;;;2.00;99.90;;;;;;5095974;28;20424;-77
2021/01/23 05:29:10;;;;;;;11.43;8.83;;;2.20;99.90;;;;;;5096461;28;20445;-77
2021/01/23 05:31:37;;;;;;;10.15;7.68;;;2.30;99.90;;;;;;5095974;28;20454;-77
2021/01/23 05:34:26;;;;;;;11.97;8.37;;;2.40;99.90;;;;;;5081449;28;20285;-77
2021/01/23 05:36:53;;;;;;;16.63;7.77;;;2.50;99.90;;;;;;5085375;28;20450;-77
2021/01/23 05:39:19;;;;;;;9.80;7.80;;;2.70;99.90;;;;;;5095715;28;20450;-77
2021/01/23 05:42:02;;;;;;;10.33;7.57;;;2.70;99.90;;;;;;5095218;28;20516;-77
2021/01/23 05:44:29;;;;;;;9.77;7.77;;;2.70;99.90;;;;;;5095572;28;20938;-85
2021/01/23 05:46:55;;;;;;;11.00;7.53;;;2.70;99.90;;;;;;5095536;28;20517;-77
2021/01/23 05:49:22;;;;;;;8.50;5.83;;;2.70;99.90;;;;;;5082285;28;20456;-77
2021/01/23 05:51:48;;;;;;;9.20;6.57;;;2.90;99.90;;;;;;5089804;28;20601;-77
2021/01/23 05:54:15;;;;;;;9.20;5.90;;;3.00;99.90;;;;;;5075639;28;20497;-77
2021/01/23 05:56:42;;;;;;;10.93;5.63;;;3.10;99.90;;;;;;5075304;28;20454;-77
2021/01/23 05:59:08;;;;;;;7.93;5.83;;;3.20;99.90;;;;;;5075225;28;20472;-77
2021/01/23 06:01:35;;;;;;;12.40;6.33;;;3.20;99.90;;;;;;5088555;28;20846;-77
2021/01/23 06:04:03;;;;;;;6.63;5.60;;;3.30;99.90;;;;;;5102019;28;20451;-77
2021/01/23 06:06:44;;;;;;;7.73;5.53;;;3.40;99.90;;;;;;5095672;28;20461;-84
2021/01/23 06:09:34;;;;;;;7.10;5.40;;;3.60;99.90;;;;;;5095535;28;20439;-79
2021/01/23 06:12:00;;;;;;;7.77;5.27;;;3.60;99.90;;;;;;5095870;28;20487;-77
2021/01/23 06:14:37;;;;;;;9.40;4.70;;;3.70;99.90;;;;;;5094028;28;20973;-77
2021/01/23 06:17:04;;;;;;;12.37;6.17;;;3.80;99.90;;;;;;5094341;28;20522;-77
2021/01/23 06:19:43;;;;;;;8.17;5.00;;;3.80;99.90;;;;;;5094662;28;20454;-86
2021/01/23 06:22:13;;;;;;;7.57;4.40;;;3.90;99.90;;;;;;5095026;28;20459;-77
2021/01/23 06:24:58;;;;;;;8.33;6.37;;;3.90;99.90;;;;;;5094437;28;20442;-77
2021/01/23 06:27:54;;;;;;;6.93;4.87;;;3.80;99.90;;;;;;5094663;28;20447;-77
2021/01/23 06:30:29;;;;;;;7.90;5.87;;;3.90;99.90;;;;;;5052400;28;20506;-77
2021/01/23 06:32:55;;;;;;;7.50;4.93;;;3.90;99.90;;;;;;5086355;28;20462;-77
2021/01/23 06:35:21;;;;;;;8.13;5.20;;;3.90;99.90;;;;;;5094901;28;20528;-77
2021/01/23 06:37:49;;;;;;;7.97;5.40;;;4.00;99.90;;;;;;5094000;28;20944;-77
2021/01/23 06:40:16;;;;;;;6.40;5.67;;;4.00;99.90;;;;;;5094771;28;20444;-77
2021/01/23 06:42:45;;;;;;;6.90;5.53;;;4.00;99.90;;;;;;5094243;28;20449;-77
2021/01/23 06:45:17;;;;;;;7.63;4.90;;;3.90;99.90;;;;;;5095031;28;20499;-78
2021/01/23 06:47:44;;;;;;;9.43;5.10;;;4.00;99.90;;;;;;5094037;28;20968;-77
2021/01/23 06:50:12;;;;;;;7.73;5.07;;;4.00;99.90;;;;;;5094532;28;20857;-76
2021/01/23 06:52:46;;;;;;;7.80;5.50;;;4.00;99.90;;;;;;5084121;28;20459;-77
2021/01/23 06:55:13;;;;;;;8.17;5.00;;;4.10;99.90;;;;;;5074112;28;20443;-78
2021/01/23 06:57:45;;;;;;;11.13;5.30;;;4.20;99.90;;;;;;5073269;28;20989;-80
2021/01/23 07:00:12;;;;;;;9.73;5.67;;;4.10;99.90;;;;;;5073797;28;20454;-77
2021/01/23 07:02:38;;;;;;;7.07;5.57;;;4.10;99.90;;;;;;5088439;28;20466;-76
2021/01/23 07:05:08;;;;;;;8.33;6.80;;;4.20;99.90;;;;;;5094167;28;20451;-77
2021/01/23 07:07:38;;;;;;;8.23;4.90;;;4.20;99.90;;;;;;5093280;28;20900;-82
2021/01/23 07:10:15;;;;;;;8.63;5.20;;;4.20;99.90;;;;;;5094079;28;20447;-76
2021/01/23 07:12:45;;;;;;;9.00;5.73;;;4.20;99.90;;;;;;5092369;28;20441;-77
2021/01/23 07:15:14;;;;;;;6.50;5.37;;;4.20;99.90;;;;;;5094329;28;20454;-76
2021/01/23 07:17:42;;;;;;;7.50;5.80;;;4.20;99.90;;;;;;5092215;28;20447;-77
2021/01/23 07:20:09;;;;;;;7.00;5.40;;;4.10;99.90;;;;;;5092319;28;20453;-77
2021/01/23 07:22:37;;;;;;;7.20;4.90;;;4.10;99.90;;;;;;5084893;28;20942;-78
2021/01/23 07:25:05;;;;;;;6.50;4.90;;;4.20;99.90;;;;;;5093001;28;20452;-76
2021/01/23 07:27:32;;;;;;;8.80;5.07;;;4.20;99.90;;;;;;5092901;28;20765;-81
2021/01/23 07:29:59;;;;;;;7.57;4.97;;;4.30;99.90;;;;;;5093353;28;20452;-79
2021/01/23 07:32:36;;;;;;;9.60;5.53;;;4.30;99.90;;;;;;5093086;28;20919;-77
2021/01/23 07:35:03;;;;;;;9.57;6.17;;;4.30;99.90;;;;;;5092871;28;20562;-79
2021/01/23 07:37:44;;;;;;;8.07;5.80;;;4.30;99.90;;;;;;5091756;28;20517;-77
2021/01/23 07:40:12;;;;;;;10.17;7.90;;;4.30;99.90;;;;;;5089888;28;20472;-78
2021/01/23 07:42:40;;;;;;;8.90;5.93;;;4.30;99.90;;;;;;5091832;28;20796;-76
2021/01/23 07:45:09;;;;;;;10.20;5.50;;;4.30;99.90;;;;;;5092225;28;20776;-77
2021/01/23 07:47:36;;;;;;;8.17;4.80;;;4.40;99.90;;;;;;5090510;28;20787;-78
2021/01/23 07:50:14;;;;;;;8.17;5.20;;;4.40;99.90;;;;;;5093433;28;20869;-82
2021/01/23 07:52:41;;;;;;;9.03;5.30;;;4.40;99.90;;;;;;5071512;28;20465;-77
2021/01/23 07:55:09;;;;;;;8.80;5.60;;;4.50;99.90;;;;;;5072392;28;20473;-77
2021/01/23 07:57:36;;;;;;;9.63;5.87;;;4.50;99.90;;;;;;5077081;28;20459;-81
2021/01/23 08:00:04;;;;;;;8.00;5.83;;;4.60;99.90;;;;;;5093412;28;20445;-77
2021/01/23 08:02:49;;;;;;;8.80;4.97;;;4.70;99.90;;;;;;5080307;28;20514;-77
2021/01/23 08:05:16;;;;;;;14.17;4.90;;;4.70;99.90;;;;;;5079315;28;20461;-77
2021/01/23 08:07:42;;;;;;;7.93;4.50;;;4.70;99.90;;;;;;5092098;28;20489;-76
2021/01/23 08:10:16;;;;;;;5.57;4.50;;;4.90;99.90;;;;;;5092987;28;20458;-77
2021/01/23 08:12:55;;;;;;;7.70;5.13;;;4.90;99.90;;;;;;5091925;28;20440;-76
2021/01/23 08:15:24;;;;;;;7.97;5.10;;;4.90;99.90;;;;;;5093484;28;20458;-76
2021/01/23 08:17:52;;;;;;;8.60;5.00;;;5.00;99.90;;;;;;5092044;28;20475;-76
2021/01/23 08:20:33;;;;;;;5.03;4.00;;;5.10;99.90;;;;;;5093098;28;20460;-79
2021/01/23 08:23:03;;;;;;;10.13;5.23;;;5.10;99.90;;;;;;5092728;28;20474;-78
2021/01/23 08:25:32;;;;;;;8.32;5.63;;;5.00;99.90;;;;;;5092727;28;20432;-77
2021/01/23 08:27:59;;;;;;;10.27;5.40;;;5.10;99.90;;;;;;5092800;28;20202;-77
2021/01/23 08:30:26;;;;;;;6.50;5.23;;;5.20;99.90;;;;;;5093024;28;20445;-77
2021/01/23 08:32:54;;;;;;;8.53;5.43;;;5.30;99.90;;;;;;5091840;28;20452;-77
2021/01/23 08:35:21;;;;;;;8.10;4.97;;;5.40;99.90;;;;;;5095207;28;20535;-77
2021/01/23 08:37:48;;;;;;;8.13;4.57;;;5.50;99.90;;;;;;5096251;28;20464;-81
2021/01/23 08:40:19;;;;;;;7.33;4.20;;;5.60;99.90;;;;;;5076564;28;20458;-77
2021/01/23 08:42:45;;;;;;;6.50;4.57;;;5.70;99.90;;;;;;5075716;28;20785;-77
2021/01/23 08:45:13;;;;;;;7.67;4.20;;;5.70;99.90;;;;;;5088919;28;20932;-77
2021/01/23 08:47:39;;;;;;;6.90;4.57;;;5.80;99.90;;;;;;5096212;28;20461;-77
2021/01/23 08:50:08;;;;;;;5.80;4.13;;;5.80;99.90;;;;;;5096814;28;20494;-77
2021/01/23 08:52:35;;;;;;;5.70;4.43;;;5.80;99.90;;;;;;5096069;28;20947;-83
2021/01/23 08:55:01;;;;;;;6.43;4.60;;;6.00;99.90;;;;;;5085919;28;20474;-78
2021/01/23 08:57:28;;;;;;;6.30;4.53;;;6.10;99.90;;;;;;5094225;28;20525;-75
2021/01/23 08:59:54;;;;;;;6.40;3.90;;;6.00;99.90;;;;;;5088604;28;21019;-77
2021/01/23 09:02:20;;;;;;;6.00;4.50;;;6.10;99.90;;;;;;5075999;28;20461;-77
2021/01/23 09:04:47;;;;;;;7.17;4.20;;;6.10;99.90;;;;;;5075622;28;20461;-74
2021/01/23 09:07:14;;;;;;;5.90;3.80;;;6.20;99.90;;;;;;5076137;28;20454;-77
2021/01/23 09:09:41;;;;;;;6.53;4.20;;;6.10;99.90;;;;;;5077765;28;20537;-77
2021/01/23 09:12:08;;;;;;;8.50;5.70;;;6.10;99.90;;;;;;5096655;28;20454;-77
2021/01/23 09:14:34;;;;;;;7.77;4.03;;;6.00;99.90;;;;;;5095762;28;20494;-85
2021/01/23 09:17:01;;;;;;;5.77;3.77;;;6.20;99.90;;;;;;5094954;28;20465;-77
2021/01/23 09:19:27;;;;;;;5.70;4.10;;;6.20;99.90;;;;;;5095518;28;20545;-77
2021/01/23 09:21:54;;;;;;;7.97;4.23;;;6.20;99.90;;;;;;5087985;28;20450;-77
2021/01/23 09:24:21;;;;;;;5.47;3.10;;;6.30;99.90;;;;;;5091565;28;20812;-77
2021/01/23 09:26:48;;;;;;;5.07;3.93;;;6.40;99.90;;;;;;5090624;28;20450;-77
2021/01/23 09:29:14;;;;;;;5.13;3.40;;;6.60;99.90;;;;;;5094078;28;20453;-77
2021/01/23 09:31:40;;;;;;;4.90;3.63;;;6.70;99.90;;;;;;5094365;28;20456;-76
2021/01/23 09:34:11;;;;;;;4.00;3.20;;;6.70;99.90;;;;;;5088786;28;20549;-80
2021/01/23 09:36:37;;;;;;;5.90;3.43;;;6.70;99.90;;;;;;5081995;28;20544;-80
2021/01/23 09:39:04;;;;;;;5.10;3.63;;;6.60;99.90;;;;;;5083889;28;20803;-79
2021/01/23 09:41:31;;;;;;;4.33;3.70;;;6.70;99.90;;;;;;5084361;28;21075;-77
2021/01/23 09:43:58;;;;;;;5.70;3.70;;;6.60;99.90;;;;;;5080142;28;20471;-79
2021/01/23 09:46:24;;;;;;;4.73;2.93;;;6.60;99.90;;;;;;5083263;28;20479;-77
2021/01/23 09:48:53;;;;;;;9.27;4.60;;;6.60;99.90;;;;;;5073802;28;20541;-77
2021/01/23 09:51:20;;;;;;;5.00;3.87;;;6.60;99.90;;;;;;5074800;28;20458;-77
2021/01/23 09:53:46;;;;;;;5.43;3.93;;;6.70;99.90;;;;;;5090833;28;20588;-76
2021/01/23 09:56:13;;;;;;;5.33;3.50;;;6.70;99.90;;;;;;5075912;28;20562;-77
2021/01/23 09:58:40;;;;;;;4.33;3.40;;;6.90;99.90;;;;;;5089165;28;20462;-85
2021/01/23 10:01:06;;;;;;;5.63;3.43;;;6.90;99.90;;;;;;5088878;28;20536;-77
2021/01/23 10:03:33;;;;;;;5.33;3.27;;;6.90;99.90;;;;;;5089992;28;20546;-78
2021/01/23 10:05:59;;;;;;;5.10;3.63;;;6.90;99.90;;;;;;5087607;28;20450;-77
2021/01/23 10:08:26;;;;;;;6.20;4.10;;;6.90;99.90;;;;;;5084290;28;20485;-78
2021/01/23 10:10:52;;;;;;;5.40;3.80;;;6.90;99.90;;;;;;5091676;28;20460;-76
2021/01/23 10:13:19;;;;;;;4.70;3.33;;;6.90;99.90;;;;;;5093130;28;20448;-77
2021/01/23 10:15:46;;;;;;;5.80;3.97;;;6.80;99.90;;;;;;5074050;28;20453;-77
2021/01/23 10:18:13;;;;;;;6.23;3.90;;;7.00;99.90;;;;;;5073710;28;20532;-76
2021/01/23 10:20:39;;;;;;;6.63;4.87;;;7.00;99.90;;;;;;5079551;28;20548;-75
2021/01/23 10:23:06;;;;;;;5.47;3.63;;;7.20;99.90;;;;;;5082336;28;20869;-75
2021/01/23 10:25:32;;;;;;;6.07;4.10;;;7.40;99.90;;;;;;5088008;28;20546;-75
2021/01/23 10:27:58;;;;;;;5.90;4.07;;;7.20;99.90;;;;;;5087936;28;20482;-75
2021/01/23 10:30:26;;;;;;;6.30;4.00;;;7.20;99.90;;;;;;5092659;28;20442;-75
2021/01/23 10:32:53;;;;;;;7.90;4.80;;;7.50;99.90;;;;;;5079716;28;20490;-78
2021/01/23 10:35:20;;;;;;;6.13;4.10;;;7.70;99.90;;;;;;5075620;28;20509;-75
2021/01/23 10:37:46;;;;;;;7.50;3.90;;;7.80;99.90;;;;;;5080496;28;20458;-78
2021/01/23 10:40:13;;;;;;;5.73;4.30;;;7.90;99.90;;;;;;5083565;28;20477;-76
2021/01/23 10:42:39;;;;;;;4.80;3.83;;;8.00;99.90;;;;;;5084917;28;20956;-77
2021/01/23 10:45:08;;;;;;;7.10;4.27;;;8.10;99.90;;;;;;5084464;28;20558;-76
2021/01/23 10:47:35;;;;;;;6.20;3.60;;;8.20;99.90;;;;;;5084660;28;20454;-83
2021/01/23 10:50:03;;;;;;;5.50;3.70;;;8.50;99.90;;;;;;5088474;28;20458;-76
2021/01/23 10:52:30;;;;;;;11.93;5.13;;;8.20;99.90;;;;;;5087584;28;20522;-78
2021/01/23 10:54:56;;;;;;;6.73;3.43;;;8.10;99.90;;;;;;5079735;28;20664;-76
2021/01/23 10:57:22;;;;;;;5.33;3.70;;;8.30;99.90;;;;;;5085630;28;20460;-76
2021/01/23 10:59:49;;;;;;;9.50;3.90;;;8.40;99.90;;;;;;5089675;28;20450;-76
2021/01/23 11:02:15;;;;;;;6.53;3.50;;;8.30;99.90;;;;;;5092316;28;20534;-75
2021/01/23 11:04:42;;;;;;;5.70;3.60;;;8.10;99.90;;;;;;5084771;28;20547;-77
2021/01/23 11:07:09;;;;;;;7.77;3.50;;;8.70;99.90;;;;;;5076551;28;20629;-75
2021/01/23 11:09:35;;;;;;;7.17;3.43;;;9.00;99.90;;;;;;5087677;28;20808;-83
2021/01/23 11:12:02;;;;;;;4.80;3.10;;;9.10;99.90;;;;;;5074323;28;20537;-77
2021/01/23 11:14:28;;;;;;;4.50;3.40;;;8.90;99.90;;;;;;5092871;28;20493;-75
2021/01/23 11:16:54;;;;;;;4.70;2.83;;;9.00;99.90;;;;;;5088341;28;20450;-75
2021/01/23 11:19:21;;;;;;;7.03;3.47;;;9.00;99.90;;;;;;5093719;28;20454;-75
2021/01/23 11:21:47;;;;;;;4.23;2.47;;;9.00;99.90;;;;;;5075559;28;20821;-77
2021/01/23 11:24:14;;;;;;;3.73;2.13;;;8.70;99.90;;;;;;5075147;28;20503;-76
2021/01/23 11:26:41;;;;;;;3.90;2.60;;;9.00;99.90;;;;;;5085966;28;20458;-75
2021/01/23 11:29:07;;;;;;;4.80;2.93;;;9.20;99.90;;;;;;5091923;28;20442;-75
2021/01/23 11:31:34;;;;;;;6.00;2.80;;;9.20;99.90;;;;;;5091271;28;20478;-75
2021/01/23 11:34:00;;;;;;;4.10;2.40;;;9.80;99.90;;;;;;5074174;28;20582;-79
2021/01/23 11:36:27;;;;;;;5.10;3.07;;;10.00;99.90;;;;;;5087393;28;20486;-75
2021/01/23 11:38:53;;;;;;;5.20;3.33;;;9.90;99.90;;;;;;5091745;28;20459;-76
2021/01/23 11:41:20;;;;;;;4.10;2.67;;;9.90;99.90;;;;;;5090614;28;20856;-82
2021/01/23 11:43:47;;;;;;;3.93;2.87;;;9.90;99.90;;;;;;5089567;28;20561;-76
2021/01/23 11:46:13;;;;;;;4.70;2.40;;;9.90;99.90;;;;;;5094544;28;20541;-76
2021/01/23 11:48:39;;;;;;;5.03;2.90;;;9.60;99.90;;;;;;5092483;28;20443;-76
2021/01/23 11:51:07;;;;;;;5.20;3.33;;;9.10;99.90;;;;;;5094592;28;20455;-75
2021/01/23 11:53:33;;;;;;;7.77;3.37;;;8.90;99.90;;;;;;5094094;28;20481;-76
2021/01/23 11:55:59;;;;;;;4.70;2.93;;;9.30;99.90;;;;;;5090749;28;20461;-76
2021/01/23 11:58:27;;;;;;;8.40;3.70;;;8.80;99.90;;;;;;5088768;28;20537;-76
2021/01/23 12:00:54;;;;;;;4.70;3.33;;;8.70;99.90;;;;;;5094524;28;20808;-77
2021/01/23 12:03:21;;;;;;;5.60;2.70;;;9.00;99.90;;;;;;5094142;28;20529;-77
2021/01/23 12:05:47;;;;;;;6.20;3.37;;;9.80;99.90;;;;;;5093855;28;20450;-77
2021/01/23 12:08:14;;;;;;;5.07;2.80;;;10.60;99.90;;;;;;5094146;28;20876;-77
2021/01/23 12:10:41;;;;;;;3.87;2.60;;;10.30;99.90;;;;;;5097279;28;20450;-84
2021/01/23 12:13:07;;;;;;;5.53;2.93;;;10.20;99.90;;;;;;5097672;28;20538;-80
2021/01/23 12:15:34;;;;;;;4.53;2.47;;;11.80;99.90;;;;;;5097569;28;20489;-77
2021/01/23 12:18:01;;;;;;;7.00;2.93;;;11.90;99.90;;;;;;5089734;28;20473;-77
2021/01/23 12:20:28;;;;;;;4.90;2.63;;;10.50;99.90;;;;;;5098126;28;20453;-77
2021/01/23 12:23:01;;;;;;;4.17;2.07;;;10.30;99.90;;;;;;5097297;28;20474;-77
2021/01/23 12:25:34;;;;;;;5.37;3.10;;;10.10;99.90;;;;;;5095746;28;20462;-77
2021/01/23 12:28:02;;;;;;;7.97;2.73;;;9.60;99.90;;;;;;5097526;28;20478;-77
2021/01/23 12:30:28;;;;;;;6.40;2.50;;;9.00;99.90;;;;;;5098072;28;20764;-76
2021/01/23 12:32:56;;;;;;;6.23;2.70;;;9.10;99.90;;;;;;5098305;28;20450;-77
2021/01/23 12:35:22;;;;;;;4.70;2.53;;;9.20;99.90;;;;;;5099023;28;20481;-76
2021/01/23 12:37:51;;;;;;;5.83;2.27;;;9.10;99.90;;;;;;5097695;28;20533;-76
2021/01/23 12:40:18;;;;;;;6.93;1.97;;;9.10;99.90;;;;;;5096803;28;20454;-77
2021/01/23 12:42:44;;;;;;;4.90;2.10;;;9.10;99.90;;;;;;5091366;28;20463;-78
2021/01/23 12:45:17;;;;;;;4.97;2.60;;;9.30;99.90;;;;;;5079660;28;20852;-76
2021/01/23 12:47:43;;;;;;;4.27;2.07;;;9.10;99.90;;;;;;5081152;28;20442;-77
2021/01/23 12:50:12;;;;;;;4.60;2.67;;;8.80;99.90;;;;;;5085914;28;20452;-76
2021/01/23 12:52:39;;;;;;;5.60;2.40;;;8.80;99.90;;;;;;5089322;28;20910;-86
2021/01/23 12:55:11;;;;;;;5.47;2.57;;;8.90;99.90;;;;;;5089348;28;20514;-79
2021/01/23 12:57:39;;;;;;;4.97;2.20;;;9.10;99.90;;;;;;5088791;28;20918;-83
2021/01/23 13:00:08;;;;;;;4.10;2.10;;;9.40;99.90;;;;;;5096445;28;20444;-76